createdAt,value
2023-04-15T00:00:48.208Z,4.7
2023-04-15T00:01:50.347Z,4.7
2023-04-15T00:02:52.337Z,4.8
2023-04-15T00:03:54.289Z,4.8
2023-04-15T00:04:56.255Z,4.8
2023-04-15T00:05:58.230Z,4.8
2023-04-15T00:07:00.203Z,4.8
2023-04-15T00:08:02.215Z,4.7
2023-04-15T00:09:04.201Z,4.7
2023-04-15T00:10:06.261Z,4.7
2023-04-15T00:11:08.256Z,4.7
2023-04-15T00:12:10.245Z,4.7
2023-04-15T00:13:13.220Z,4.7
2023-04-15T00:14:15.240Z,4.7
2023-04-15T00:15:18.264Z,4.7
2023-04-15T00:16:20.236Z,4.7
2023-04-15T00:17:22.238Z,4.7
2023-04-15T00:18:24.215Z,4.7
2023-04-15T00:19:26.214Z,4.7
2023-04-15T00:20:28.266Z,4.6
2023-04-15T00:21:30.228Z,4.6
2023-04-15T00:22:45.679Z,4.6
2023-04-15T00:23:34.223Z,4.7
2023-04-15T00:24:36.222Z,4.7
2023-04-15T00:25:38.266Z,4.7
2023-04-15T00:26:40.275Z,4.7
2023-04-15T00:27:42.230Z,4.7
2023-04-15T00:28:44.219Z,4.7
2023-04-15T00:29:46.235Z,4.7
2023-04-15T00:30:48.257Z,4.6
2023-04-15T00:31:50.269Z,4.6
2023-04-15T00:32:52.319Z,4.6
2023-04-15T00:33:55.220Z,4.6
2023-04-15T00:35:09.610Z,4.6
2023-04-15T00:35:59.231Z,4.6
2023-04-15T00:37:01.289Z,4.6
2023-04-15T00:38:03.233Z,4.6
2023-04-15T00:39:05.230Z,4.6
2023-04-15T00:40:07.238Z,4.6
2023-04-15T00:41:10.234Z,4.6
2023-04-15T00:42:12.293Z,4.6
2023-04-15T00:44:18.271Z,4.6
2023-04-15T00:45:20.261Z,4.6
2023-04-15T00:46:22.251Z,4.6
2023-04-15T00:47:25.308Z,4.6
2023-04-15T00:48:27.244Z,4.6
2023-04-15T00:49:29.279Z,4.6
2023-04-15T00:51:11.464Z,4.6
2023-04-15T00:52:11.480Z,4.6
2023-04-15T00:53:11.469Z,4.6
2023-04-15T00:54:11.518Z,4.6
2023-04-15T00:55:11.487Z,4.6
2023-04-15T00:56:11.474Z,4.6
2023-04-15T00:57:11.476Z,4.6
2023-04-15T00:58:11.470Z,4.6
2023-04-15T00:59:11.520Z,4.6
2023-04-15T01:01:11.548Z,4.6
2023-04-15T01:02:11.520Z,4.6
2023-04-15T01:03:11.694Z,4.6
2023-04-15T01:04:11.533Z,4.6
2023-04-15T01:05:11.515Z,4.6
2023-04-15T01:06:11.476Z,4.6
2023-04-15T01:07:11.498Z,4.6
2023-04-15T01:08:11.476Z,4.6
2023-04-15T01:09:11.481Z,4.6
2023-04-15T01:11:11.527Z,4.5
2023-04-15T01:12:13.262Z,4.5
2023-04-15T01:13:15.274Z,4.5
2023-04-15T01:14:19.310Z,4.5
2023-04-15T01:15:21.277Z,4.5
2023-04-15T01:16:23.301Z,4.5
2023-04-15T01:17:25.295Z,4.5
2023-04-15T01:18:27.259Z,4.5
2023-04-15T01:19:30.261Z,4.5
2023-04-15T01:20:32.310Z,4.5
2023-04-15T01:21:34.287Z,4.5
2023-04-15T01:22:36.269Z,4.5
2023-04-15T01:23:38.293Z,4.5
2023-04-15T01:24:40.278Z,4.4
2023-04-15T01:25:42.291Z,4.4
2023-04-15T01:26:44.706Z,4.4
2023-04-15T01:27:46.264Z,4.4
2023-04-15T01:28:48.273Z,4.5
2023-04-15T01:29:50.322Z,4.5
2023-04-15T01:31:11.553Z,4.5
2023-04-15T01:32:11.488Z,4.5
2023-04-15T01:33:11.489Z,4.5
2023-04-15T01:34:11.487Z,4.5
2023-04-15T01:35:11.587Z,4.5
2023-04-15T01:36:11.511Z,4.6
2023-04-15T01:37:11.511Z,4.6
2023-04-15T01:38:11.504Z,4.6
2023-04-15T01:39:11.497Z,4.6
2023-04-15T01:41:11.551Z,4.6
2023-04-15T01:42:11.503Z,4.6
2023-04-15T01:43:11.530Z,4.5
2023-04-15T01:44:11.557Z,4.6
2023-04-15T01:45:11.496Z,4.6
2023-04-15T01:46:11.562Z,4.5
2023-04-15T01:47:11.557Z,4.5
2023-04-15T01:48:11.496Z,4.5
2023-04-15T01:49:11.513Z,4.5
2023-04-15T01:50:11.556Z,4.6
2023-04-15T01:51:11.517Z,4.6
2023-04-15T01:52:11.548Z,4.6
2023-04-15T01:53:11.520Z,4.6
2023-04-15T01:54:11.513Z,4.5
2023-04-15T01:55:11.627Z,4.5
2023-04-15T01:56:11.516Z,4.5
2023-04-15T01:57:11.523Z,4.5
2023-04-15T01:58:11.532Z,4.6
2023-04-15T01:59:11.522Z,4.6
2023-04-15T02:00:11.570Z,4.6
2023-04-15T02:01:11.557Z,4.6
2023-04-15T02:02:11.532Z,4.6
2023-04-15T02:03:11.605Z,4.7
2023-04-15T02:04:11.615Z,4.6
2023-04-15T02:05:11.516Z,4.6
2023-04-15T02:06:11.533Z,4.6
2023-04-15T02:07:11.541Z,4.6
2023-04-15T02:08:11.522Z,4.6
2023-04-15T02:09:11.576Z,4.6
2023-04-15T02:10:11.612Z,4.6
2023-04-15T02:11:13.303Z,4.6
2023-04-15T02:12:15.329Z,4.6
2023-04-15T02:13:19.313Z,4.6
2023-04-15T02:14:21.346Z,4.6
2023-04-15T02:15:23.341Z,4.6
2023-04-15T02:16:25.396Z,4.6
2023-04-15T02:17:27.323Z,4.6
2023-04-15T02:18:29.307Z,4.5
2023-04-15T02:19:31.383Z,4.5
2023-04-15T02:20:33.351Z,4.5
2023-04-15T02:21:35.356Z,4.6
2023-04-15T02:22:37.312Z,4.6
2023-04-15T02:23:40.308Z,4.6
2023-04-15T02:24:42.326Z,4.6
2023-04-15T02:25:57.729Z,4.6
2023-04-15T02:26:46.316Z,4.5
2023-04-15T02:27:48.356Z,4.5
2023-04-15T02:28:50.310Z,4.5
2023-04-15T02:29:52.320Z,4.5
2023-04-15T02:30:54.415Z,4.6
2023-04-15T02:31:56.362Z,4.6
2023-04-15T02:32:58.407Z,4.6
2023-04-15T02:34:00.315Z,4.5
2023-04-15T02:35:02.352Z,4.5
2023-04-15T02:36:04.385Z,4.5
2023-04-15T02:37:06.322Z,4.5
2023-04-15T02:38:08.318Z,4.6
2023-04-15T02:39:10.318Z,4.6
2023-04-15T02:41:15.394Z,4.6
2023-04-15T02:42:18.322Z,4.6
2023-04-15T02:43:20.327Z,4.6
2023-04-15T02:44:22.336Z,4.7
2023-04-15T02:45:25.372Z,4.7
2023-04-15T02:46:27.376Z,4.6
2023-04-15T02:47:29.347Z,4.6
2023-04-15T02:48:31.325Z,4.6
2023-04-15T02:49:33.326Z,4.6
2023-04-15T02:50:35.426Z,4.6
2023-04-15T02:51:37.328Z,4.5
2023-04-15T02:52:39.330Z,4.5
2023-04-15T02:53:41.366Z,4.6
2023-04-15T02:54:43.336Z,4.6
2023-04-15T02:55:45.369Z,4.6
2023-04-15T02:56:47.346Z,4.6
2023-04-15T02:57:49.373Z,4.6
2023-04-15T02:58:51.331Z,4.5
2023-04-15T02:59:53.336Z,4.5
2023-04-15T03:00:55.379Z,4.5
2023-04-15T03:01:57.398Z,4.5
2023-04-15T03:03:00.491Z,4.4
2023-04-15T03:04:02.526Z,4.4
2023-04-15T03:05:04.352Z,4.4
2023-04-15T03:06:06.373Z,4.4
2023-04-15T03:07:08.388Z,4.4
2023-04-15T03:08:10.387Z,4.4
2023-04-15T03:09:12.343Z,4.5
2023-04-15T03:11:18.344Z,4.5
2023-04-15T03:12:20.346Z,4.5
2023-04-15T03:13:22.340Z,4.4
2023-04-15T03:14:24.342Z,4.4
2023-04-15T03:15:26.378Z,4.4
2023-04-15T03:16:28.428Z,4.4
2023-04-15T03:17:30.405Z,4.4
2023-04-15T03:18:32.346Z,4.4
2023-04-15T03:19:34.338Z,4.4
2023-04-15T03:20:36.407Z,4.4
2023-04-15T03:21:38.398Z,4.4
2023-04-15T03:22:40.348Z,4.4
2023-04-15T03:23:42.348Z,4.4
2023-04-15T03:24:44.355Z,4.4
2023-04-15T03:25:46.353Z,4.5
2023-04-15T03:26:48.447Z,4.5
2023-04-15T03:27:50.406Z,4.5
2023-04-15T03:28:52.360Z,4.4
2023-04-15T03:29:54.347Z,4.4
2023-04-15T03:31:09.762Z,4.5
2023-04-15T03:31:58.419Z,4.4
2023-04-15T03:33:00.395Z,4.4
2023-04-15T03:34:02.363Z,4.4
2023-04-15T03:35:04.366Z,4.4
2023-04-15T03:36:06.360Z,4.4
2023-04-15T03:37:08.411Z,4.4
2023-04-15T03:38:10.357Z,4.4
2023-04-15T03:39:12.367Z,4.4
2023-04-15T03:41:18.361Z,4.4
2023-04-15T03:42:20.476Z,4.4
2023-04-15T03:43:22.365Z,4.4
2023-04-15T03:44:24.403Z,4.4
2023-04-15T03:45:26.366Z,4.4
2023-04-15T03:46:28.383Z,4.4
2023-04-15T03:48:17.942Z,4.4
2023-04-15T03:49:11.630Z,4.5
2023-04-15T03:50:11.616Z,4.4
2023-04-15T03:51:11.588Z,4.5
2023-04-15T03:52:11.590Z,4.5
2023-04-15T03:53:11.619Z,4.4
2023-04-15T03:54:11.635Z,4.5
2023-04-15T03:55:49.366Z,4.5
2023-04-15T03:56:51.372Z,4.4
2023-04-15T03:57:54.368Z,4.4
2023-04-15T03:58:56.372Z,4.4
2023-04-15T03:59:58.415Z,4.4
2023-04-15T04:01:00.370Z,4.4
2023-04-15T04:02:02.548Z,4.5
2023-04-15T04:03:04.673Z,4.5
2023-04-15T04:04:06.453Z,4.5
2023-04-15T04:05:08.422Z,4.5
2023-04-15T04:06:10.374Z,4.5
2023-04-15T04:07:12.375Z,4.5
2023-04-15T04:08:15.393Z,4.5
2023-04-15T04:09:18.426Z,4.5
2023-04-15T04:11:22.381Z,4.5
2023-04-15T04:12:24.432Z,4.5
2023-04-15T04:13:26.387Z,4.5
2023-04-15T04:14:28.423Z,4.5
2023-04-15T04:15:30.408Z,4.5
2023-04-15T04:16:32.395Z,4.5
2023-04-15T04:17:34.497Z,4.6
2023-04-15T04:18:36.390Z,4.6
2023-04-15T04:19:38.432Z,4.6
2023-04-15T04:20:40.393Z,4.6
2023-04-15T04:21:42.380Z,4.5
2023-04-15T04:22:44.387Z,4.5
2023-04-15T04:23:46.387Z,4.5
2023-04-15T04:24:48.490Z,4.5
2023-04-15T04:25:50.397Z,4.5
2023-04-15T04:26:52.432Z,4.5
2023-04-15T04:27:54.401Z,4.5
2023-04-15T04:28:56.404Z,4.4
2023-04-15T04:29:58.398Z,4.4
2023-04-15T04:31:00.404Z,4.4
2023-04-15T04:32:02.499Z,4.4
2023-04-15T04:33:04.420Z,4.4
2023-04-15T04:34:06.399Z,4.4
2023-04-15T04:35:08.397Z,4.4
2023-04-15T04:36:10.390Z,4.4
2023-04-15T04:37:12.494Z,4.4
2023-04-15T04:38:15.408Z,4.4
2023-04-15T04:39:18.394Z,4.4
2023-04-15T04:40:20.399Z,4.4
2023-04-15T04:41:22.399Z,4.4
2023-04-15T04:42:24.432Z,4.4
2023-04-15T04:43:26.401Z,4.5
2023-04-15T04:44:28.443Z,4.5
2023-04-15T04:45:30.400Z,4.5
2023-04-15T04:46:32.393Z,4.5
2023-04-15T04:47:34.455Z,4.5
2023-04-15T04:48:36.407Z,4.5
2023-04-15T04:49:38.451Z,4.5
2023-04-15T04:50:41.412Z,4.5
2023-04-15T04:51:43.408Z,4.5
2023-04-15T04:52:45.498Z,4.5
2023-04-15T04:53:47.412Z,4.5
2023-04-15T04:54:49.457Z,4.5
2023-04-15T04:55:51.411Z,4.5
2023-04-15T04:56:53.411Z,4.5
2023-04-15T04:57:55.409Z,4.5
2023-04-15T04:58:57.420Z,4.5
2023-04-15T04:59:59.460Z,4.4
2023-04-15T05:01:02.439Z,4.4
2023-04-15T05:02:04.470Z,4.4
2023-04-15T05:03:06.609Z,4.4
2023-04-15T05:04:08.506Z,4.4
2023-04-15T05:05:10.497Z,4.4
2023-04-15T05:06:12.425Z,4.4
2023-04-15T05:07:15.448Z,4.4
2023-04-15T05:08:18.422Z,4.4
2023-04-15T05:09:20.468Z,4.4
2023-04-15T05:10:22.469Z,4.4
2023-04-15T05:11:24.434Z,4.4
2023-04-15T05:12:27.421Z,4.4
2023-04-15T05:13:29.427Z,4.4
2023-04-15T05:14:31.418Z,4.4
2023-04-15T05:15:33.447Z,4.5
2023-04-15T05:16:35.431Z,4.5
2023-04-15T05:17:37.478Z,4.5
2023-04-15T05:18:39.425Z,4.5
2023-04-15T05:19:41.420Z,4.5
2023-04-15T05:21:11.653Z,4.5
2023-04-15T05:22:11.703Z,4.5
2023-04-15T05:23:11.654Z,4.5
2023-04-15T05:24:11.701Z,4.5
2023-04-15T05:25:11.668Z,4.5
2023-04-15T05:26:11.657Z,4.6
2023-04-15T05:27:11.720Z,4.6
2023-04-15T05:28:11.657Z,4.6
2023-04-15T05:29:11.658Z,4.6
2023-04-15T05:30:13.555Z,4.6
2023-04-15T05:31:11.785Z,4.6
2023-04-15T05:32:11.657Z,4.6
2023-04-15T05:33:11.667Z,4.5
2023-04-15T05:34:11.666Z,4.6
2023-04-15T05:35:11.665Z,4.6
2023-04-15T05:36:15.511Z,4.6
2023-04-15T05:37:18.492Z,4.7
2023-04-15T05:38:20.461Z,4.6
2023-04-15T05:39:22.498Z,4.6
2023-04-15T05:40:24.467Z,4.6
2023-04-15T05:41:26.452Z,4.6
2023-04-15T05:42:28.483Z,4.6
2023-04-15T05:43:30.451Z,4.5
2023-04-15T05:44:33.476Z,4.5
2023-04-15T05:45:34.459Z,4.5
2023-04-15T05:46:36.630Z,4.5
2023-04-15T05:47:38.509Z,4.5
2023-04-15T05:48:40.452Z,4.5
2023-04-15T05:49:42.452Z,4.5
2023-04-15T05:50:44.473Z,4.5
2023-04-15T05:51:47.467Z,4.5
2023-04-15T05:53:11.731Z,4.6
2023-04-15T05:54:11.694Z,4.6
2023-04-15T05:55:11.718Z,4.6
2023-04-15T05:56:11.679Z,4.7
2023-04-15T05:57:11.690Z,4.7
2023-04-15T05:58:23.591Z,4.7
2023-04-15T05:59:11.679Z,4.7
2023-04-15T06:00:11.683Z,4.7
2023-04-15T06:01:11.690Z,4.7
2023-04-15T06:02:11.818Z,4.7
2023-04-15T06:03:11.847Z,4.7
2023-04-15T06:04:13.554Z,4.6
2023-04-15T06:05:15.486Z,4.6
2023-04-15T06:06:19.463Z,4.7
2023-04-15T06:07:21.473Z,4.7
2023-04-15T06:08:23.467Z,4.6
2023-04-15T06:09:25.490Z,4.7
2023-04-15T06:10:27.512Z,4.7
2023-04-15T06:11:29.517Z,4.6
2023-04-15T06:12:31.472Z,4.6
2023-04-15T06:13:33.498Z,4.7
2023-04-15T06:14:35.470Z,4.8
2023-04-15T06:15:37.468Z,4.8
2023-04-15T06:16:39.533Z,4.8
2023-04-15T06:17:41.498Z,4.8
2023-04-15T06:19:45.519Z,4.9
2023-04-15T06:20:47.466Z,4.8
2023-04-15T06:21:49.488Z,4.8
2023-04-15T06:22:51.471Z,4.8
2023-04-15T06:23:53.472Z,4.8
2023-04-15T06:24:55.520Z,4.7
2023-04-15T06:25:57.570Z,4.7
2023-04-15T06:26:59.505Z,4.7
2023-04-15T06:28:01.517Z,4.7
2023-04-15T06:29:03.665Z,4.7
2023-04-15T06:30:05.491Z,4.7
2023-04-15T06:31:07.576Z,4.7
2023-04-15T06:32:09.548Z,4.7
2023-04-15T06:33:11.491Z,4.7
2023-04-15T06:34:13.508Z,4.6
2023-04-15T06:35:15.507Z,4.6
2023-04-15T06:37:22.636Z,4.7
2023-04-15T06:38:24.479Z,4.7
2023-04-15T06:39:26.480Z,4.8
2023-04-15T06:41:11.711Z,4.8
2023-04-15T06:42:11.755Z,4.8
2023-04-15T06:43:11.760Z,4.8
2023-04-15T06:44:11.706Z,4.8
2023-04-15T06:45:11.747Z,4.8
2023-04-15T06:46:11.794Z,4.8
2023-04-15T06:47:11.714Z,4.9
2023-04-15T06:48:11.702Z,4.9
2023-04-15T06:49:11.843Z,5
2023-04-15T06:50:48.541Z,5
2023-04-15T06:51:51.493Z,5
2023-04-15T06:52:53.547Z,5
2023-04-15T06:53:56.489Z,5.1
2023-04-15T06:54:58.497Z,5
2023-04-15T06:57:03.503Z,5
2023-04-15T06:58:06.531Z,5
2023-04-15T06:59:08.545Z,5
2023-04-15T07:00:10.518Z,5
2023-04-15T07:01:12.546Z,5.1
2023-04-15T07:02:15.564Z,5.1
2023-04-15T07:03:17.755Z,5.1
2023-04-15T07:04:19.772Z,5.1
2023-04-15T07:05:21.713Z,5.2
2023-04-15T07:07:25.698Z,5.2
2023-04-15T07:08:27.653Z,5.2
2023-04-15T07:09:29.650Z,5.2
2023-04-15T07:11:33.706Z,5.1
2023-04-15T07:12:35.760Z,5.1
2023-04-15T07:13:38.667Z,5.1
2023-04-15T07:14:40.700Z,5.1
2023-04-15T07:15:42.659Z,5
2023-04-15T07:16:44.696Z,5
2023-04-15T07:17:46.831Z,5
2023-04-15T07:18:49.665Z,5
2023-04-15T07:19:51.693Z,5
2023-04-15T07:20:53.680Z,5.1
2023-04-15T07:21:55.692Z,5.1
2023-04-15T07:22:57.711Z,5.1
2023-04-15T07:23:59.670Z,5.1
2023-04-15T07:25:01.691Z,5.1
2023-04-15T07:26:04.669Z,5.1
2023-04-15T07:28:09.223Z,5.1
2023-04-15T07:29:11.736Z,5.1
2023-04-15T07:31:14.811Z,5.2
2023-04-15T07:32:17.684Z,5.2
2023-04-15T07:33:19.719Z,5.2
2023-04-15T07:34:21.730Z,5.2
2023-04-15T07:35:23.680Z,5.3
2023-04-15T07:36:25.699Z,5.4
2023-04-15T07:37:27.678Z,5.3
2023-04-15T07:38:29.680Z,5.3
2023-04-15T07:40:11.778Z,5.3
2023-04-15T07:41:11.746Z,5.3
2023-04-15T07:42:11.762Z,5.3
2023-04-15T07:43:11.833Z,5.3
2023-04-15T07:44:11.752Z,5.3
2023-04-15T07:45:11.804Z,5.3
2023-04-15T07:46:46.687Z,5.3
2023-04-15T07:47:49.113Z,5.3
2023-04-15T07:49:11.787Z,5.3
2023-04-15T07:50:12.486Z,5.4
2023-04-15T07:51:11.753Z,5.3
2023-04-15T07:52:11.756Z,5.4
2023-04-15T07:53:11.768Z,5.4
2023-04-15T07:54:11.769Z,5.4
2023-04-15T07:56:11.827Z,5.3
2023-04-15T07:57:11.766Z,5.4
2023-04-15T07:59:11.920Z,5.4
2023-04-15T08:00:14.778Z,5.4
2023-04-15T08:01:17.738Z,5.3
2023-04-15T08:02:19.913Z,5.4
2023-04-15T08:03:21.762Z,5.3
2023-04-15T08:04:23.966Z,5.3
2023-04-15T08:05:25.779Z,5.3
2023-04-15T08:06:40.217Z,5.3
2023-04-15T08:07:29.700Z,5.3
2023-04-15T08:08:31.700Z,5.3
2023-04-15T08:09:33.711Z,5.3
2023-04-15T08:10:35.740Z,5.3
2023-04-15T08:11:37.712Z,5.3
2023-04-15T08:12:39.710Z,5.3
2023-04-15T08:14:43.704Z,5.3
2023-04-15T08:15:46.843Z,5.2
2023-04-15T08:16:48.715Z,5.3
2023-04-15T08:17:51.808Z,5.3
2023-04-15T08:18:53.711Z,5.3
2023-04-15T08:19:55.720Z,5.3
2023-04-15T08:21:11.879Z,5.4
2023-04-15T08:22:16.022Z,5.4
2023-04-15T08:23:11.790Z,5.5
2023-04-15T08:24:11.804Z,5.5
2023-04-15T08:25:11.786Z,5.5
2023-04-15T08:26:11.845Z,5.5
2023-04-15T08:27:11.791Z,5.5
2023-04-15T08:28:11.926Z,5.5
2023-04-15T08:29:14.734Z,5.5
2023-04-15T08:30:17.715Z,5.5
2023-04-15T08:31:19.850Z,5.5
2023-04-15T08:32:21.828Z,5.5
2023-04-15T08:33:23.729Z,5.5
2023-04-15T08:35:27.721Z,5.5
2023-04-15T08:36:29.775Z,5.5
2023-04-15T08:37:31.721Z,5.5
2023-04-15T08:38:33.717Z,5.5
2023-04-15T08:39:35.724Z,5.5
2023-04-15T08:40:37.737Z,5.5
2023-04-15T08:41:39.765Z,5.5
2023-04-15T08:42:42.965Z,5.6
2023-04-15T08:43:43.726Z,5.6
2023-04-15T08:44:45.729Z,5.6
2023-04-15T08:45:47.765Z,5.6
2023-04-15T08:46:49.883Z,5.6
2023-04-15T08:47:51.751Z,5.7
2023-04-15T08:48:53.727Z,5.7
2023-04-15T08:49:55.750Z,5.7
2023-04-15T08:50:57.736Z,5.7
2023-04-15T08:52:11.852Z,5.7
2023-04-15T08:53:11.829Z,5.7
2023-04-15T08:54:11.807Z,5.6
2023-04-15T08:56:12.138Z,5.7
2023-04-15T08:57:11.855Z,5.7
2023-04-15T08:58:11.948Z,5.8
2023-04-15T08:59:14.770Z,5.7
2023-04-15T09:00:17.763Z,5.7
2023-04-15T09:01:19.850Z,5.7
2023-04-15T09:02:21.876Z,5.7
2023-04-15T09:03:23.898Z,5.7
2023-04-15T09:04:26.747Z,5.7
2023-04-15T09:05:28.750Z,5.8
2023-04-15T09:06:30.746Z,5.8
2023-04-15T09:07:32.800Z,5.8
2023-04-15T09:08:34.742Z,5.8
2023-04-15T09:10:38.752Z,5.8
2023-04-15T09:11:40.750Z,5.8
2023-04-15T09:13:11.930Z,5.9
2023-04-15T09:14:47.788Z,5.9
2023-04-15T09:15:49.757Z,5.8
2023-04-15T09:16:51.799Z,5.8
2023-04-15T09:17:53.797Z,5.8
2023-04-15T09:18:55.750Z,5.7
2023-04-15T09:19:57.797Z,5.8
2023-04-15T09:22:19.442Z,5.8
2023-04-15T09:23:21.453Z,5.8
2023-04-15T09:24:24.057Z,5.8
2023-04-15T09:26:29.044Z,5.8
2023-04-15T09:28:33.059Z,5.9
2023-04-15T09:29:35.080Z,5.9
2023-04-15T09:31:39.123Z,5.9
2023-04-15T09:32:41.080Z,5.8
2023-04-15T09:34:11.945Z,5.9
2023-04-15T09:35:11.827Z,5.9
2023-04-15T09:36:11.840Z,5.8
2023-04-15T09:37:12.965Z,5.8
2023-04-15T09:38:11.825Z,5.8
2023-04-15T09:39:11.878Z,5.8
2023-04-15T09:40:11.850Z,5.9
2023-04-15T09:43:15.970Z,5.9
2023-04-15T09:45:05.995Z,6
2023-04-15T09:46:08.051Z,6
2023-04-15T09:47:09.946Z,6
2023-04-15T09:49:14.118Z,6
2023-04-15T09:50:16.056Z,6
2023-04-15T09:52:21.001Z,6.1
2023-04-15T09:53:23.961Z,6.1
2023-04-15T09:56:11.908Z,6
2023-04-15T09:57:12.234Z,6
2023-04-15T09:58:35.023Z,6
2023-04-15T09:59:37.025Z,6
2023-04-15T10:00:39.013Z,5.9
2023-04-15T10:01:41.010Z,5.9
2023-04-15T10:03:45.216Z,5.9
2023-04-15T10:04:47.005Z,5.9
2023-04-15T10:05:48.969Z,6
2023-04-15T10:06:51.056Z,6
2023-04-15T10:07:52.972Z,6
2023-04-15T10:08:54.975Z,5.9
2023-04-15T10:09:57.029Z,5.9
2023-04-15T10:12:01.970Z,5.9
2023-04-15T10:13:04.018Z,5.9
2023-04-15T10:15:08.038Z,5.9
2023-04-15T10:16:10.041Z,6
2023-04-15T10:17:12.197Z,6
2023-04-15T10:18:13.976Z,6
2023-04-15T10:19:15.974Z,6
2023-04-15T10:20:18.037Z,6
2023-04-15T10:21:19.980Z,6
2023-04-15T10:22:21.968Z,5.9
2023-04-15T10:23:27.978Z,5.9
2023-04-15T10:24:29.980Z,5.9
2023-04-15T10:25:32.022Z,5.9
2023-04-15T10:27:11.924Z,6
2023-04-15T10:28:11.882Z,6
2023-04-15T10:30:11.870Z,6.1
2023-04-15T10:31:45.182Z,6.1
2023-04-15T10:32:47.067Z,6.1
2023-04-15T10:34:11.886Z,6.1
2023-04-15T10:35:11.898Z,6.1
2023-04-15T10:36:54.994Z,6.1
2023-04-15T10:37:58.059Z,6.1
2023-04-15T10:38:59.988Z,6.1
2023-04-15T10:40:02.122Z,6.1
2023-04-15T10:41:03.995Z,6.1
2023-04-15T10:43:08.132Z,6.1
2023-04-15T10:44:10.032Z,6.1
2023-04-15T10:45:12.222Z,6.2
2023-04-15T10:46:14.003Z,6.2
2023-04-15T10:47:16.990Z,6.2
2023-04-15T10:48:18.997Z,6.3
2023-04-15T10:49:21.021Z,6.3
2023-04-15T10:50:24.031Z,6.3
2023-04-15T10:51:26.997Z,6.3
2023-04-15T10:52:28.989Z,6.3
2023-04-15T10:53:31.055Z,6.3
2023-04-15T10:54:33.058Z,6.3
2023-04-15T10:55:35.008Z,6.4
2023-04-15T10:56:37.057Z,6.4
2023-04-15T10:57:39.019Z,6.4
2023-04-15T10:59:43.010Z,6.4
2023-04-15T11:00:44.999Z,6.4
2023-04-15T11:01:47.123Z,6.4
2023-04-15T11:03:12.072Z,6.4
2023-04-15T11:04:11.935Z,6.5
2023-04-15T11:05:55.002Z,6.5
2023-04-15T11:06:57.022Z,6.5
2023-04-15T11:07:59.007Z,6.5
2023-04-15T11:09:01.015Z,6.6
2023-04-15T11:11:05.025Z,6.6
2023-04-15T11:13:10.015Z,6.6
2023-04-15T11:14:12.915Z,6.7
2023-04-15T11:15:14.823Z,6.7
2023-04-15T11:16:16.887Z,6.7
2023-04-15T11:17:18.830Z,6.7
2023-04-15T11:18:21.829Z,6.7
2023-04-15T11:20:27.884Z,6.7
2023-04-15T11:21:29.859Z,6.7
2023-04-15T11:22:31.932Z,6.7
2023-04-15T11:23:33.841Z,6.7
2023-04-15T11:25:37.823Z,6.6
2023-04-15T11:27:41.875Z,6.6
2023-04-15T11:28:43.821Z,6.6
2023-04-15T11:29:45.883Z,6.6
2023-04-15T11:32:51.865Z,6.5
2023-04-15T11:33:54.547Z,6.5
2023-04-15T11:34:56.851Z,6.5
2023-04-15T11:35:58.841Z,6.5
2023-04-15T11:37:00.833Z,6.6
2023-04-15T11:38:02.840Z,6.6
2023-04-15T11:39:04.878Z,6.6
2023-04-15T11:40:06.843Z,6.6
2023-04-15T11:41:08.847Z,6.6
2023-04-15T11:42:11.849Z,6.6
2023-04-15T11:43:13.852Z,6.8
2023-04-15T11:44:15.901Z,6.8
2023-04-15T11:45:17.901Z,6.8
2023-04-15T11:46:20.077Z,6.8
2023-04-15T11:47:21.866Z,6.8
2023-04-15T11:48:23.869Z,6.8
2023-04-15T11:49:26.850Z,6.8
2023-04-15T11:50:28.848Z,6.9
2023-04-15T11:51:30.889Z,6.9
2023-04-15T11:52:32.853Z,6.9
2023-04-15T11:53:34.853Z,7
2023-04-15T11:54:36.853Z,7
2023-04-15T11:55:38.858Z,7
2023-04-15T11:56:40.860Z,7
2023-04-15T11:57:42.852Z,6.9
2023-04-15T11:58:44.855Z,6.9
2023-04-15T11:59:46.877Z,6.9
2023-04-15T12:00:48.909Z,6.9
2023-04-15T12:01:50.871Z,6.9
2023-04-15T12:02:53.000Z,6.9
2023-04-15T12:05:10.094Z,6.9
2023-04-15T12:05:59.855Z,6.9
2023-04-15T12:07:16.124Z,7
2023-04-15T12:08:11.939Z,7
2023-04-15T12:09:11.991Z,7
2023-04-15T12:10:11.943Z,7
2023-04-15T12:11:11.956Z,7.1
2023-04-15T12:12:12.068Z,7.2
2023-04-15T12:14:15.905Z,7.2
2023-04-15T12:15:17.879Z,7.2
2023-04-15T12:16:20.018Z,7.2
2023-04-15T12:17:21.880Z,7.2
2023-04-15T12:19:29.899Z,7.2
2023-04-15T12:20:31.954Z,7.2
2023-04-15T12:21:33.872Z,7.2
2023-04-15T12:23:11.959Z,7.1
2023-04-15T12:24:11.963Z,7.2
2023-04-15T12:26:11.999Z,7.1
2023-04-15T12:27:11.971Z,7.2
2023-04-15T12:28:11.951Z,7.2
2023-04-15T12:29:11.953Z,7.1
2023-04-15T12:30:12.021Z,7.1
2023-04-15T12:31:12.019Z,7.1
2023-04-15T12:33:11.959Z,7.1
2023-04-15T12:35:11.988Z,7.3
2023-04-15T12:36:12.008Z,7.3
2023-04-15T12:37:11.974Z,7.3
2023-04-15T12:38:12.016Z,7.3
2023-04-15T12:39:11.965Z,7.4
2023-04-15T12:40:11.977Z,7.4
2023-04-15T12:42:15.991Z,7.3
2023-04-15T12:43:17.888Z,7.3
2023-04-15T12:46:12.002Z,7.2
2023-04-15T12:48:12.045Z,7.2
2023-04-15T12:50:11.977Z,7.3
2023-04-15T12:51:36.539Z,7.3
2023-04-15T12:52:38.564Z,7.3
2023-04-15T12:53:40.508Z,7.2
2023-04-15T12:54:42.509Z,7.2
2023-04-15T12:56:11.985Z,7.2
2023-04-15T12:57:48.608Z,7.2
2023-04-15T12:58:50.512Z,7.3
2023-04-15T12:59:52.506Z,7.3
2023-04-15T13:00:54.521Z,7.2
2023-04-15T13:01:56.596Z,7.3
2023-04-15T13:02:59.679Z,7.3
2023-04-15T13:04:12.109Z,7.3
2023-04-15T13:05:11.988Z,7.2
2023-04-15T13:06:11.983Z,7.2
2023-04-15T13:08:12.037Z,7.3
2023-04-15T13:09:11.997Z,7.3
2023-04-15T13:11:15.515Z,7.3
2023-04-15T13:12:17.524Z,7.3
2023-04-15T13:13:19.518Z,7.3
2023-04-15T13:14:21.577Z,7.2
2023-04-15T13:15:24.588Z,7.2
2023-04-15T13:16:27.602Z,7.1
2023-04-15T13:17:29.582Z,7.1
2023-04-15T13:18:31.560Z,7.2
2023-04-15T13:19:33.516Z,7.2
2023-04-15T13:21:11.999Z,7.3
2023-04-15T13:22:11.997Z,7.3
2023-04-15T13:23:11.996Z,7.3
2023-04-15T13:24:12.066Z,7.3
2023-04-15T13:25:11.990Z,7.2
2023-04-15T13:26:12.015Z,7.3
2023-04-15T13:27:12.002Z,7.3
2023-04-15T13:28:12.000Z,7.3
2023-04-15T13:29:12.050Z,7.3
2023-04-15T13:30:12.041Z,7.3
2023-04-15T13:31:12.073Z,7.4
2023-04-15T13:32:11.999Z,7.3
2023-04-15T13:33:12.009Z,7.3
2023-04-15T13:34:12.062Z,7.3
2023-04-15T13:35:12.000Z,7.3
2023-04-15T13:36:12.012Z,7.3
2023-04-15T13:38:12.006Z,7.3
2023-04-15T13:40:15.019Z,7.2
2023-04-15T13:41:16.979Z,7.2
2023-04-15T13:42:19.000Z,7.2
2023-04-15T13:43:20.964Z,7.1
2023-04-15T13:44:23.005Z,7.1
2023-04-15T13:45:25.029Z,7.1
2023-04-15T13:46:26.965Z,7.1
2023-04-15T13:47:29.980Z,7.1
2023-04-15T13:48:31.995Z,7.1
2023-04-15T13:49:34.007Z,7.1
2023-04-15T13:50:35.962Z,7.1
2023-04-15T13:51:37.957Z,7.1
2023-04-15T13:52:40.075Z,7.1
2023-04-15T13:53:42.967Z,7.2
2023-04-15T13:54:45.018Z,7.2
2023-04-15T13:55:46.964Z,7.2
2023-04-15T13:56:48.961Z,7.2
2023-04-15T13:57:51.978Z,7.2
2023-04-15T13:58:53.979Z,7.2
2023-04-15T13:59:56.050Z,7.2
2023-04-15T14:00:58.081Z,7.2
2023-04-15T14:02:00.051Z,7.2
2023-04-15T14:03:02.151Z,7.2
2023-04-15T14:04:04.390Z,7.2
2023-04-15T14:06:09.033Z,7.2
2023-04-15T14:07:11.093Z,7.2
2023-04-15T14:08:13.359Z,7.2
2023-04-15T14:09:15.991Z,7.2
2023-04-15T14:10:17.996Z,7.1
2023-04-15T14:11:19.996Z,7.2
2023-04-15T14:13:12.038Z,7.3
2023-04-15T14:14:12.091Z,7.3
2023-04-15T14:15:12.046Z,7.3
2023-04-15T14:16:12.083Z,7.3
2023-04-15T14:17:12.078Z,7.3
2023-04-15T14:18:12.128Z,7.3
2023-04-15T14:19:12.054Z,7.3
2023-04-15T14:20:12.033Z,7.2
2023-04-15T14:21:12.156Z,7.2
2023-04-15T14:22:12.118Z,7.2
2023-04-15T14:23:12.151Z,7.3
2023-04-15T14:24:12.113Z,7.3
2023-04-15T14:25:20.075Z,7.3
2023-04-15T14:26:52.995Z,7.4
2023-04-15T14:27:55.108Z,7.4
2023-04-15T14:28:57.000Z,7.4
2023-04-15T14:29:59.089Z,7.3
2023-04-15T14:31:01.041Z,7.3
2023-04-15T14:32:10.984Z,7.4
2023-04-15T14:33:05.116Z,7.3
2023-04-15T14:34:07.205Z,7.3
2023-04-15T14:35:09.054Z,7.2
2023-04-15T14:36:11.000Z,7.2
2023-04-15T14:37:13.000Z,7.2
2023-04-15T14:38:15.188Z,7.2
2023-04-15T14:39:17.021Z,7.2
2023-04-15T14:40:19.007Z,7.2
2023-04-15T14:41:21.053Z,7.2
2023-04-15T14:44:27.674Z,7.2
2023-04-15T14:45:29.707Z,7.2
2023-04-15T14:46:31.701Z,7.2
2023-04-15T14:48:12.237Z,7.3
2023-04-15T14:49:12.074Z,7.3
2023-04-15T14:50:12.153Z,7.2
2023-04-15T14:51:12.154Z,7.2
2023-04-15T14:52:12.059Z,7.2
2023-04-15T14:53:12.080Z,7.2
2023-04-15T14:54:12.057Z,7.1
2023-04-15T14:56:12.236Z,7.1
2023-04-15T14:57:12.094Z,7.1
2023-04-15T14:58:12.189Z,7.1
2023-04-15T14:59:12.087Z,7
2023-04-15T15:00:23.898Z,7
2023-04-15T15:01:12.296Z,7
2023-04-15T15:02:14.678Z,7
2023-04-15T15:03:12.161Z,6.9
2023-04-15T15:04:12.245Z,6.9
2023-04-15T15:05:13.023Z,6.9
2023-04-15T15:06:12.104Z,6.9
2023-04-15T15:07:13.738Z,6.9
2023-04-15T15:08:15.709Z,6.9
2023-04-15T15:09:17.664Z,6.9
2023-04-15T15:10:33.199Z,6.9
2023-04-15T15:11:21.726Z,6.9
2023-04-15T15:12:23.659Z,7
2023-04-15T15:13:26.661Z,7
2023-04-15T15:14:28.704Z,7
2023-04-15T15:15:30.712Z,7
2023-04-15T15:16:32.687Z,7
2023-04-15T15:17:34.696Z,7
2023-04-15T15:18:36.734Z,7
2023-04-15T15:19:38.666Z,7
2023-04-15T15:20:44.715Z,7
2023-04-15T15:21:46.654Z,7.1
2023-04-15T15:22:48.662Z,7.2
2023-04-15T15:23:50.668Z,7.2
2023-04-15T15:24:52.667Z,7.2
2023-04-15T15:25:54.708Z,7.2
2023-04-15T15:26:56.666Z,7.2
2023-04-15T15:27:58.698Z,7.2
2023-04-15T15:29:00.665Z,7.2
2023-04-15T15:30:02.738Z,7.2
2023-04-15T15:31:04.746Z,7.2
2023-04-15T15:32:06.668Z,7.2
2023-04-15T15:33:08.666Z,7.2
2023-04-15T15:34:10.672Z,7.2